Terminal Aerodrome Forecast
Issued by NWS

Home | Current Version | Previous Version | Text Only | Print | Product List | Glossary On
Versions: 1 2 3 4 5 6 7 8 9 10 11 12
000
FTUS45 KVEF 292300
TAFHND
TAF
KHND 292320Z 3000/3024 15009KT P6SM SCT250
     FM300300 19009KT P6SM SCT250
     FM302000 20014G23KT P6SM SCT250=

USA.gov is the U.S. government's official web portal to all federal, state and local government web resources and services.